createdAt,value
2024-02-16T00:00:09.344Z,8.14
2024-02-16T00:01:09.322Z,8.28
2024-02-16T00:02:09.268Z,8.25
2024-02-16T00:03:09.312Z,8.37
2024-02-16T00:04:09.328Z,8.31
2024-02-16T00:05:09.538Z,8.25
2024-02-16T00:06:09.290Z,8.18
2024-02-16T00:07:09.341Z,8.00
2024-02-16T00:08:09.270Z,7.98
2024-02-16T00:09:09.254Z,7.96
2024-02-16T00:10:09.316Z,8.05
2024-02-16T00:11:09.253Z,8.02
2024-02-16T00:12:09.262Z,7.86
2024-02-16T00:13:09.261Z,8.07
2024-02-16T00:14:09.258Z,8.18
2024-02-16T00:15:09.357Z,8.21
2024-02-16T00:16:09.287Z,8.10
2024-02-16T00:17:09.298Z,8.28
2024-02-16T00:18:09.368Z,8.27
2024-02-16T00:19:09.380Z,8.17
2024-02-16T00:20:09.391Z,8.10
2024-02-16T00:21:09.431Z,8.02
2024-02-16T00:22:09.394Z,8.01
2024-02-16T00:23:09.372Z,8.02
2024-02-16T00:24:09.357Z,8.02
2024-02-16T00:25:09.388Z,7.83
2024-02-16T00:26:09.493Z,7.54
2024-02-16T00:27:09.595Z,7.77
2024-02-16T00:28:09.505Z,7.71
2024-02-16T00:29:09.533Z,7.88
2024-02-16T00:30:09.679Z,7.63
2024-02-16T00:31:09.769Z,7.50
2024-02-16T00:32:09.696Z,7.39
2024-02-16T00:33:09.918Z,7.47
2024-02-16T00:34:10.040Z,7.54
2024-02-16T00:35:10.068Z,7.31
2024-02-16T00:36:10.226Z,7.43
2024-02-16T00:37:10.041Z,7.43
2024-02-16T00:38:10.198Z,7.59
2024-02-16T00:39:10.194Z,7.57
2024-02-16T00:40:10.339Z,7.57
2024-02-16T00:41:10.276Z,7.73
2024-02-16T00:42:10.416Z,7.74
2024-02-16T00:43:10.384Z,7.83
2024-02-16T00:44:10.385Z,7.71
2024-02-16T00:45:10.630Z,7.66
2024-02-16T00:46:10.505Z,7.63
2024-02-16T00:47:10.501Z,7.67
2024-02-16T00:48:10.583Z,7.56
2024-02-16T00:49:10.665Z,7.47
2024-02-16T00:50:10.880Z,7.42
2024-02-16T00:51:10.812Z,7.49
2024-02-16T00:52:10.756Z,7.34
2024-02-16T00:53:10.844Z,7.39
2024-02-16T00:54:10.966Z,7.45
2024-02-16T00:55:10.992Z,7.45
2024-02-16T00:56:10.987Z,7.36
2024-02-16T00:57:11.136Z,7.30
2024-02-16T00:58:11.095Z,7.24
2024-02-16T00:59:11.107Z,7.40
2024-02-16T01:00:11.188Z,7.46
2024-02-16T01:01:11.125Z,7.34
2024-02-16T01:02:11.222Z,7.43
2024-02-16T01:03:11.256Z,7.47
2024-02-16T01:04:11.304Z,7.31
2024-02-16T01:05:11.789Z,7.50
2024-02-16T01:06:11.350Z,7.33
2024-02-16T01:07:11.416Z,7.26
2024-02-16T01:08:11.408Z,7.29
2024-02-16T01:09:11.419Z,7.22
2024-02-16T01:10:11.442Z,7.26
2024-02-16T01:11:11.525Z,7.42
2024-02-16T01:12:11.546Z,7.36
2024-02-16T01:13:11.487Z,7.33
2024-02-16T01:14:11.568Z,7.47
2024-02-16T01:15:11.668Z,7.43
2024-02-16T01:16:11.680Z,7.69
2024-02-16T01:17:11.657Z,7.69
2024-02-16T01:18:11.789Z,7.84
2024-02-16T01:19:11.902Z,7.98
2024-02-16T01:20:12.468Z,8.15
2024-02-16T01:21:11.877Z,8.30
2024-02-16T01:22:11.860Z,8.37
2024-02-16T01:23:11.877Z,8.30
2024-02-16T01:24:12.128Z,8.33
2024-02-16T01:25:12.000Z,8.18
2024-02-16T01:26:12.055Z,8.07
2024-02-16T01:27:12.097Z,8.14
2024-02-16T01:28:12.140Z,7.70
2024-02-16T01:29:12.163Z,7.73
2024-02-16T01:30:12.496Z,7.86
2024-02-16T01:31:12.262Z,7.74
2024-02-16T01:32:12.339Z,7.88
2024-02-16T01:33:12.430Z,7.97
2024-02-16T01:34:12.519Z,8.01
2024-02-16T01:35:12.681Z,7.97
2024-02-16T01:36:12.533Z,8.01
2024-02-16T01:37:12.582Z,7.81
2024-02-16T01:38:12.537Z,7.60
2024-02-16T01:39:12.765Z,7.53
2024-02-16T01:40:12.864Z,7.34
2024-02-16T01:41:12.823Z,7.34
2024-02-16T01:42:12.834Z,7.45
2024-02-16T01:43:12.812Z,7.46
2024-02-16T01:44:12.831Z,7.59
2024-02-16T01:45:12.902Z,7.73
2024-02-16T01:46:12.936Z,7.52
2024-02-16T01:47:13.003Z,7.50
2024-02-16T01:48:13.216Z,7.27
2024-02-16T01:49:13.109Z,7.56
2024-02-16T01:50:13.110Z,7.69
2024-02-16T01:51:13.149Z,7.74
2024-02-16T01:52:13.132Z,7.76
2024-02-16T01:53:13.174Z,7.77
2024-02-16T01:54:13.271Z,7.86
2024-02-16T01:55:13.284Z,7.67
2024-02-16T01:56:13.249Z,7.31
2024-02-16T01:57:13.313Z,7.20
2024-02-16T01:58:13.272Z,7.31
2024-02-16T01:59:13.297Z,7.49
2024-02-16T02:00:13.346Z,7.64
2024-02-16T02:01:13.325Z,7.76
2024-02-16T02:02:13.289Z,7.83
2024-02-16T02:03:13.327Z,7.87
2024-02-16T02:04:13.316Z,7.88
2024-02-16T02:05:13.479Z,7.96
2024-02-16T02:06:13.478Z,8.05
2024-02-16T02:07:13.422Z,8.13
2024-02-16T02:08:13.347Z,8.04
2024-02-16T02:09:13.793Z,8.01
2024-02-16T02:10:13.418Z,8.05
2024-02-16T02:11:13.418Z,8.11
2024-02-16T02:12:13.514Z,8.07
2024-02-16T02:13:13.362Z,8.15
2024-02-16T02:14:13.429Z,8.05
2024-02-16T02:15:13.632Z,8.05
2024-02-16T02:16:13.632Z,8.14
2024-02-16T02:17:13.572Z,8.05
2024-02-16T02:18:14.686Z,8.11
2024-02-16T02:19:13.713Z,7.91
2024-02-16T02:20:13.809Z,7.96
2024-02-16T02:21:13.676Z,7.97
2024-02-16T02:22:13.721Z,8.02
2024-02-16T02:23:13.854Z,8.04
2024-02-16T02:24:13.889Z,7.94
2024-02-16T02:25:13.885Z,7.66
2024-02-16T02:26:13.900Z,7.74
2024-02-16T02:27:14.023Z,7.43
2024-02-16T02:28:13.996Z,7.60
2024-02-16T02:29:14.036Z,7.30
2024-02-16T02:30:14.242Z,7.39
2024-02-16T02:31:14.132Z,7.23
2024-02-16T02:32:14.239Z,7.15
2024-02-16T02:33:14.370Z,7.42
2024-02-16T02:34:14.332Z,7.50
2024-02-16T02:35:14.406Z,7.64
2024-02-16T02:36:14.526Z,7.70
2024-02-16T02:37:14.379Z,7.73
2024-02-16T02:38:14.461Z,7.76
2024-02-16T02:39:14.428Z,7.80
2024-02-16T02:40:15.025Z,7.83
2024-02-16T02:41:14.472Z,7.87
2024-02-16T02:42:14.570Z,7.74
2024-02-16T02:43:14.532Z,7.86
2024-02-16T02:44:14.535Z,7.77
2024-02-16T02:45:14.775Z,7.76
2024-02-16T02:46:14.655Z,7.76
2024-02-16T02:47:14.710Z,7.74
2024-02-16T02:48:14.976Z,7.81
2024-02-16T02:49:14.928Z,7.80
2024-02-16T02:50:14.883Z,7.84
2024-02-16T02:51:14.968Z,7.83
2024-02-16T02:52:15.051Z,7.86
2024-02-16T02:53:15.068Z,7.91
2024-02-16T02:54:15.145Z,7.93
2024-02-16T02:55:15.217Z,7.98
2024-02-16T02:56:15.211Z,8.01
2024-02-16T02:57:15.270Z,7.96
2024-02-16T02:58:15.258Z,7.93
2024-02-16T02:59:15.230Z,7.87
2024-02-16T03:00:15.484Z,7.86
2024-02-16T03:01:15.465Z,7.86
2024-02-16T03:02:15.495Z,7.76
2024-02-16T03:03:15.572Z,7.81
2024-02-16T03:04:15.625Z,7.84
2024-02-16T03:05:15.506Z,7.83
2024-02-16T03:06:15.615Z,7.80
2024-02-16T03:07:15.644Z,7.83
2024-02-16T03:08:15.717Z,7.80
2024-02-16T03:09:15.736Z,7.80
2024-02-16T03:10:15.594Z,7.81
2024-02-16T03:11:15.685Z,7.76
2024-02-16T03:12:15.809Z,7.78
2024-02-16T03:13:15.710Z,7.80
2024-02-16T03:14:15.758Z,7.84
2024-02-16T03:15:15.904Z,7.84
2024-02-16T03:16:15.856Z,7.84
2024-02-16T03:17:15.852Z,7.90
2024-02-16T03:18:16.085Z,7.90
2024-02-16T03:19:16.044Z,7.87
2024-02-16T03:20:16.064Z,7.87
2024-02-16T03:21:16.075Z,7.78
2024-02-16T03:22:16.124Z,7.76
2024-02-16T03:23:16.119Z,7.74
2024-02-16T03:24:16.147Z,7.70
2024-02-16T03:25:16.427Z,7.66
2024-02-16T03:26:16.327Z,7.63
2024-02-16T03:27:16.409Z,7.62
2024-02-16T03:28:16.376Z,7.63
2024-02-16T03:29:16.458Z,7.63
2024-02-16T03:30:16.536Z,7.64
2024-02-16T03:31:16.475Z,7.67
2024-02-16T03:32:16.546Z,7.67
2024-02-16T03:33:16.610Z,7.69
2024-02-16T03:34:16.923Z,7.71
2024-02-16T03:35:16.608Z,7.54
2024-02-16T03:36:16.758Z,7.53
2024-02-16T03:37:16.629Z,7.54
2024-02-16T03:38:16.627Z,7.59
2024-02-16T03:39:16.761Z,7.60
2024-02-16T03:40:16.719Z,7.66
2024-02-16T03:41:16.762Z,7.66
2024-02-16T03:42:16.883Z,7.71
2024-02-16T03:43:16.870Z,7.52
2024-02-16T03:44:16.883Z,7.47
2024-02-16T03:45:17.011Z,7.45
2024-02-16T03:46:16.920Z,7.54
2024-02-16T03:47:18.030Z,7.49
2024-02-16T03:48:17.251Z,7.56
2024-02-16T03:49:17.097Z,7.47
2024-02-16T03:50:16.926Z,7.50
2024-02-16T03:51:17.002Z,7.54
2024-02-16T03:52:16.920Z,7.60
2024-02-16T03:53:16.944Z,7.64
2024-02-16T03:54:17.041Z,7.69
2024-02-16T03:55:16.969Z,7.63
2024-02-16T03:56:16.947Z,7.62
2024-02-16T03:57:17.004Z,7.63
2024-02-16T03:58:16.982Z,7.67
2024-02-16T03:59:16.952Z,7.66
2024-02-16T04:00:17.074Z,7.70
2024-02-16T04:01:17.102Z,7.71
2024-02-16T04:02:16.918Z,7.70
2024-02-16T04:03:16.921Z,7.46
2024-02-16T04:04:16.981Z,7.40
2024-02-16T04:05:17.508Z,7.49
2024-02-16T04:06:17.045Z,7.53
2024-02-16T04:07:17.057Z,7.56
2024-02-16T04:08:17.037Z,7.63
2024-02-16T04:09:17.103Z,7.66
2024-02-16T04:10:17.187Z,7.69
2024-02-16T04:11:17.219Z,7.67
2024-02-16T04:12:17.185Z,7.70
2024-02-16T04:13:17.230Z,7.74
2024-02-16T04:14:17.246Z,7.74
2024-02-16T04:15:17.340Z,7.77
2024-02-16T04:16:17.298Z,7.73
2024-02-16T04:17:17.273Z,6.99
2024-02-16T04:18:17.390Z,6.62
2024-02-16T04:19:17.453Z,6.91
2024-02-16T04:20:17.425Z,7.00
2024-02-16T04:21:17.429Z,7.13
2024-02-16T04:22:17.462Z,6.78
2024-02-16T04:23:17.542Z,6.92
2024-02-16T04:24:17.619Z,7.00
2024-02-16T04:25:17.618Z,7.12
2024-02-16T04:26:17.648Z,7.19
2024-02-16T04:27:17.745Z,7.27
2024-02-16T04:28:17.734Z,7.31
2024-02-16T04:29:17.780Z,7.43
2024-02-16T04:30:17.860Z,7.19
2024-02-16T04:31:17.828Z,7.39
2024-02-16T04:32:17.839Z,7.47
2024-02-16T04:33:18.116Z,7.49
2024-02-16T04:34:18.059Z,7.56
2024-02-16T04:35:18.168Z,7.57
2024-02-16T04:36:18.028Z,7.60
2024-02-16T04:37:18.076Z,7.69
2024-02-16T04:38:18.088Z,7.34
2024-02-16T04:39:18.177Z,7.13
2024-02-16T04:40:18.221Z,6.92
2024-02-16T04:41:18.287Z,7.05
2024-02-16T04:42:18.331Z,7.22
2024-02-16T04:43:18.220Z,7.33
2024-02-16T04:44:18.299Z,7.40
2024-02-16T04:45:18.490Z,7.45
2024-02-16T04:46:18.340Z,7.49
2024-02-16T04:47:18.433Z,7.42
2024-02-16T04:48:18.559Z,7.43
2024-02-16T04:49:18.669Z,7.43
2024-02-16T04:50:18.518Z,7.42
2024-02-16T04:51:18.538Z,7.42
2024-02-16T04:52:18.563Z,7.43
2024-02-16T04:53:18.625Z,7.47
2024-02-16T04:54:18.672Z,7.54
2024-02-16T04:55:18.832Z,7.37
2024-02-16T04:56:18.780Z,7.50
2024-02-16T04:57:18.748Z,7.54
2024-02-16T04:58:18.757Z,7.60
2024-02-16T04:59:18.827Z,7.67
2024-02-16T05:00:18.957Z,7.70
2024-02-16T05:01:18.946Z,7.73
2024-02-16T05:02:26.466Z,7.74
2024-02-16T05:03:26.578Z,7.78
2024-02-16T05:04:26.506Z,7.84
2024-02-16T05:05:26.587Z,7.90
2024-02-16T05:06:26.662Z,7.96
2024-02-16T05:07:26.531Z,7.96
2024-02-16T05:08:26.562Z,7.97
2024-02-16T05:09:26.559Z,7.98
2024-02-16T05:10:26.660Z,7.98
2024-02-16T05:11:26.639Z,8.01
2024-02-16T05:12:26.582Z,8.02
2024-02-16T05:13:26.513Z,8.02
2024-02-16T05:14:26.600Z,7.97
2024-02-16T05:15:26.579Z,8.00
2024-02-16T05:16:26.528Z,7.91
2024-02-16T05:17:26.650Z,7.90
2024-02-16T05:18:26.695Z,7.91
2024-02-16T05:19:26.692Z,7.94
2024-02-16T05:20:26.657Z,7.91
2024-02-16T05:21:26.617Z,7.93
2024-02-16T05:22:26.606Z,7.96
2024-02-16T05:23:26.466Z,7.94
2024-02-16T05:24:26.538Z,7.93
2024-02-16T05:25:26.599Z,7.97
2024-02-16T05:26:26.510Z,7.93
2024-02-16T05:27:26.609Z,7.78
2024-02-16T05:28:26.525Z,7.70
2024-02-16T05:29:26.537Z,7.69
2024-02-16T05:30:26.693Z,7.63
2024-02-16T05:31:26.541Z,7.64
2024-02-16T05:32:26.595Z,7.49
2024-02-16T05:33:26.644Z,7.59
2024-02-16T05:34:26.671Z,7.54
2024-02-16T05:35:26.574Z,7.42
2024-02-16T05:36:26.602Z,6.61
2024-02-16T05:37:26.557Z,6.39
2024-02-16T05:38:26.627Z,6.55
2024-02-16T05:39:26.646Z,6.61
2024-02-16T05:40:26.630Z,6.69
2024-02-16T05:41:26.501Z,6.29
2024-02-16T05:42:26.558Z,6.24
2024-02-16T05:43:26.537Z,5.85
2024-02-16T05:44:26.631Z,6.15
2024-02-16T05:45:26.711Z,6.20
2024-02-16T05:46:26.539Z,6.11
2024-02-16T05:47:26.553Z,6.10
2024-02-16T05:48:26.628Z,6.20
2024-02-16T05:49:26.667Z,6.38
2024-02-16T05:50:26.768Z,6.49
2024-02-16T05:51:26.658Z,6.56
2024-02-16T05:52:26.784Z,6.71
2024-02-16T05:53:26.765Z,6.86
2024-02-16T05:54:26.812Z,7.00
2024-02-16T05:55:26.876Z,6.89
2024-02-16T05:56:26.920Z,6.83
2024-02-16T05:57:26.968Z,7.10
2024-02-16T05:58:26.920Z,7.20
2024-02-16T05:59:27.052Z,7.27
2024-02-16T06:00:27.600Z,7.39
2024-02-16T06:01:27.171Z,7.42
2024-02-16T06:02:27.160Z,7.52
2024-02-16T06:03:27.185Z,7.54
2024-02-16T06:04:27.321Z,7.49
2024-02-16T06:05:27.407Z,7.16
2024-02-16T06:06:27.424Z,7.17
2024-02-16T06:07:27.532Z,7.34
2024-02-16T06:08:30.617Z,7.39
2024-02-16T06:09:27.510Z,7.43
2024-02-16T06:10:27.454Z,7.53
2024-02-16T06:11:27.536Z,7.50
2024-02-16T06:12:27.489Z,7.16
2024-02-16T06:13:27.451Z,6.96
2024-02-16T06:14:27.457Z,7.17
2024-02-16T06:15:27.589Z,7.12
2024-02-16T06:16:27.485Z,7.19
2024-02-16T06:17:27.464Z,7.22
2024-02-16T06:18:27.571Z,7.36
2024-02-16T06:19:27.584Z,7.42
2024-02-16T06:20:27.503Z,7.47
2024-02-16T06:21:27.507Z,7.53
2024-02-16T06:22:27.461Z,7.56
2024-02-16T06:23:27.560Z,7.59
2024-02-16T06:24:27.530Z,7.54
2024-02-16T06:25:27.526Z,7.57
2024-02-16T06:26:27.522Z,7.64
2024-02-16T06:27:27.544Z,7.70
2024-02-16T06:28:27.425Z,7.74
2024-02-16T06:29:27.432Z,7.78
2024-02-16T06:30:27.593Z,7.83
2024-02-16T06:31:27.570Z,7.83
2024-02-16T06:32:27.590Z,7.87
2024-02-16T06:33:27.561Z,7.84
2024-02-16T06:34:27.588Z,7.88
2024-02-16T06:35:27.455Z,7.87
2024-02-16T06:36:27.575Z,7.88
2024-02-16T06:37:27.476Z,7.84
2024-02-16T06:38:27.508Z,7.83
2024-02-16T06:39:27.531Z,7.80
2024-02-16T06:40:27.573Z,7.86
2024-02-16T06:41:27.599Z,7.86
2024-02-16T06:42:27.591Z,7.91
2024-02-16T06:43:27.534Z,7.91
2024-02-16T06:44:27.539Z,7.88
2024-02-16T06:45:27.440Z,7.84
2024-02-16T06:46:27.623Z,7.37
2024-02-16T06:47:27.545Z,7.22
2024-02-16T06:48:27.611Z,7.26
2024-02-16T06:49:27.629Z,7.07
2024-02-16T06:50:27.544Z,6.96
2024-02-16T06:51:27.724Z,6.86
2024-02-16T06:52:27.504Z,6.72
2024-02-16T06:53:27.507Z,6.83
2024-02-16T06:54:27.556Z,6.91
2024-02-16T06:55:27.511Z,6.93
2024-02-16T06:56:27.574Z,7.09
2024-02-16T06:57:27.519Z,7.23
2024-02-16T06:58:27.569Z,7.29
2024-02-16T06:59:27.623Z,7.31
2024-02-16T07:00:27.658Z,7.42
2024-02-16T07:01:27.729Z,7.53
2024-02-16T07:02:27.674Z,7.57
2024-02-16T07:03:27.784Z,7.67
2024-02-16T07:04:27.850Z,7.77
2024-02-16T07:05:27.870Z,7.86
2024-02-16T07:06:28.072Z,7.91
2024-02-16T07:07:28.055Z,8.00
2024-02-16T07:08:28.002Z,8.05
2024-02-16T07:09:28.138Z,8.11
2024-02-16T07:10:28.068Z,8.17
2024-02-16T07:11:28.194Z,8.21
2024-02-16T07:12:28.212Z,8.25
2024-02-16T07:13:28.223Z,8.34
2024-02-16T07:14:28.240Z,8.40
2024-02-16T07:15:28.366Z,8.49
2024-02-16T07:16:28.313Z,8.69
2024-02-16T07:17:28.388Z,8.89
2024-02-16T07:18:28.636Z,9.11
2024-02-16T07:19:28.553Z,9.32
2024-02-16T07:20:28.511Z,9.53
2024-02-16T07:21:28.598Z,9.70
2024-02-16T07:22:28.511Z,9.79
2024-02-16T07:23:28.614Z,10.02
2024-02-16T07:24:28.726Z,10.10
2024-02-16T07:25:28.693Z,10.47
2024-02-16T07:26:29.164Z,10.75
2024-02-16T07:27:28.788Z,11.05
2024-02-16T07:28:28.774Z,11.35
2024-02-16T07:29:28.858Z,11.21
2024-02-16T07:30:36.875Z,10.59
2024-02-16T07:31:29.893Z,10.03
2024-02-16T07:32:28.896Z,10.43
2024-02-16T07:33:29.053Z,10.12
2024-02-16T07:34:28.973Z,10.44
2024-02-16T07:35:28.895Z,10.54
2024-02-16T07:36:28.953Z,10.85
2024-02-16T07:37:28.885Z,11.19
2024-02-16T07:38:28.858Z,9.96
2024-02-16T07:39:28.990Z,10.54
2024-02-16T07:40:28.835Z,10.04
2024-02-16T07:41:28.889Z,10.04
2024-02-16T07:42:28.995Z,10.67
2024-02-16T07:43:28.868Z,11.21
2024-02-16T07:44:28.876Z,11.59
2024-02-16T07:45:29.146Z,11.12
2024-02-16T07:46:28.915Z,11.07
2024-02-16T07:47:29.039Z,11.01
2024-02-16T07:48:29.123Z,11.05
2024-02-16T07:49:29.097Z,11.31
2024-02-16T07:50:29.113Z,11.30
2024-02-16T07:51:29.101Z,10.80
2024-02-16T07:52:29.148Z,10.93
2024-02-16T07:53:29.224Z,11.00
2024-02-16T07:54:29.256Z,11.12
2024-02-16T07:55:29.285Z,11.52
2024-02-16T07:56:29.414Z,11.66
2024-02-16T07:57:29.349Z,11.08
2024-02-16T07:58:29.353Z,10.26
2024-02-16T07:59:29.379Z,9.69
2024-02-16T08:00:29.459Z,10.03
2024-02-16T08:01:29.480Z,10.10
2024-02-16T08:02:29.462Z,10.47
2024-02-16T08:03:29.548Z,9.77
2024-02-16T08:04:29.547Z,9.79
2024-02-16T08:05:29.667Z,10.04
2024-02-16T08:06:29.943Z,10.02
2024-02-16T08:07:29.904Z,9.62
2024-02-16T08:08:29.636Z,9.12
2024-02-16T08:09:29.813Z,9.02
2024-02-16T08:10:29.757Z,9.28
2024-02-16T08:11:29.878Z,9.49
2024-02-16T08:12:29.841Z,9.90
2024-02-16T08:13:29.867Z,10.41
2024-02-16T08:14:29.944Z,10.81
2024-02-16T08:15:30.077Z,11.28
2024-02-16T08:16:30.021Z,11.61
2024-02-16T08:17:30.018Z,11.79
2024-02-16T08:18:30.210Z,11.85
2024-02-16T08:19:30.088Z,12.11
2024-02-16T08:20:30.078Z,12.23
2024-02-16T08:21:30.162Z,12.31
2024-02-16T08:22:30.102Z,12.43
2024-02-16T08:23:30.120Z,12.52
2024-02-16T08:24:30.206Z,12.63
2024-02-16T08:25:30.136Z,12.83
2024-02-16T08:26:30.144Z,12.60
2024-02-16T08:27:30.244Z,12.87
2024-02-16T08:28:30.073Z,12.73
2024-02-16T08:29:30.099Z,11.92
2024-02-16T08:30:30.295Z,11.99
2024-02-16T08:31:30.073Z,12.28
2024-02-16T08:32:30.111Z,12.12
2024-02-16T08:33:30.351Z,11.75
2024-02-16T08:34:30.276Z,11.54
2024-02-16T08:35:30.283Z,11.32
2024-02-16T08:36:30.374Z,11.19
2024-02-16T08:37:30.460Z,10.90
2024-02-16T08:38:30.519Z,11.14
2024-02-16T08:39:30.469Z,11.52
2024-02-16T08:40:30.429Z,11.85
2024-02-16T08:41:30.561Z,12.15
2024-02-16T08:42:30.595Z,12.03
2024-02-16T08:43:30.572Z,12.06
2024-02-16T08:44:30.553Z,12.25
2024-02-16T08:45:30.735Z,11.82
2024-02-16T08:46:30.915Z,12.15
2024-02-16T08:47:30.826Z,12.31
2024-02-16T08:48:30.959Z,12.37
2024-02-16T08:49:30.860Z,12.45
2024-02-16T08:50:30.804Z,12.53
2024-02-16T08:51:31.082Z,12.57
2024-02-16T08:52:30.918Z,11.34
2024-02-16T08:53:30.959Z,10.90
2024-02-16T08:54:31.096Z,11.28
2024-02-16T08:55:31.157Z,11.07
2024-02-16T08:56:31.667Z,11.32
2024-02-16T08:57:31.312Z,11.48
2024-02-16T08:58:31.261Z,11.62
2024-02-16T08:59:31.287Z,11.57
2024-02-16T09:00:31.507Z,11.98
2024-02-16T09:01:31.411Z,11.92
2024-02-16T09:02:31.415Z,11.64
2024-02-16T09:03:31.532Z,11.54
2024-02-16T09:04:31.457Z,12.03
2024-02-16T09:05:31.723Z,11.95
2024-02-16T09:06:31.823Z,12.25
2024-02-16T09:07:31.619Z,12.29
2024-02-16T09:08:31.640Z,12.57
2024-02-16T09:09:31.723Z,12.87
2024-02-16T09:10:31.805Z,12.96
2024-02-16T09:11:31.809Z,12.83
2024-02-16T09:12:31.808Z,13.08
2024-02-16T09:13:33.912Z,13.60
2024-02-16T09:14:31.651Z,13.41
2024-02-16T09:15:31.754Z,13.44
2024-02-16T09:16:31.716Z,13.54
2024-02-16T09:17:31.701Z,13.36
2024-02-16T09:18:31.769Z,12.84
2024-02-16T09:19:31.787Z,13.13
2024-02-16T09:20:32.106Z,13.43
2024-02-16T09:21:31.932Z,13.80
2024-02-16T09:23:31.697Z,13.02
2024-02-16T09:24:31.821Z,13.04
2024-02-16T09:25:31.662Z,13.57
2024-02-16T09:26:31.869Z,13.53
2024-02-16T09:27:31.732Z,13.16
2024-02-16T09:28:31.688Z,13.10
2024-02-16T09:29:31.660Z,13.44
2024-02-16T09:30:31.747Z,13.77
2024-02-16T09:31:31.696Z,13.64
2024-02-16T09:32:31.696Z,14.02
2024-02-16T09:33:31.852Z,14.28
2024-02-16T09:34:31.840Z,13.78
2024-02-16T09:35:31.726Z,14.12
2024-02-16T09:36:31.938Z,14.61
2024-02-16T09:37:31.702Z,14.95
2024-02-16T09:38:31.728Z,14.98
2024-02-16T09:39:31.740Z,15.09
2024-02-16T09:40:31.689Z,14.79
2024-02-16T09:41:31.760Z,15.22
2024-02-16T09:42:31.797Z,14.75
2024-02-16T09:43:31.709Z,15.28
2024-02-16T09:44:31.786Z,14.44
2024-02-16T09:45:31.793Z,14.51
2024-02-16T09:46:31.804Z,15.06
2024-02-16T09:47:31.800Z,15.26
2024-02-16T09:48:31.942Z,14.88
2024-02-16T09:49:38.985Z,15.12
2024-02-16T09:50:32.946Z,15.62
2024-02-16T09:51:31.887Z,15.89
2024-02-16T09:52:31.714Z,15.96
2024-02-16T09:53:31.794Z,16.27
2024-02-16T09:54:31.736Z,15.46
2024-02-16T09:55:31.718Z,14.79
2024-02-16T09:56:31.787Z,14.29
2024-02-16T09:57:31.890Z,15.06
2024-02-16T09:58:31.789Z,14.94
2024-02-16T09:59:31.781Z,14.05
2024-02-16T10:00:31.876Z,13.37
2024-02-16T10:01:31.822Z,13.53
2024-02-16T10:02:31.836Z,13.68
2024-02-16T10:03:31.885Z,13.68
2024-02-16T10:04:35.652Z,14.41
2024-02-16T10:05:32.878Z,14.05
2024-02-16T10:06:31.867Z,14.12
2024-02-16T10:07:31.915Z,14.00
2024-02-16T10:08:31.811Z,14.00
2024-02-16T10:09:31.933Z,14.01
2024-02-16T10:10:31.824Z,14.41
2024-02-16T10:11:32.050Z,14.59
2024-02-16T10:12:31.938Z,15.06
2024-02-16T10:13:31.860Z,15.47
2024-02-16T10:14:31.878Z,15.39
2024-02-16T10:15:31.893Z,15.36
2024-02-16T10:16:31.878Z,15.46
2024-02-16T10:17:31.970Z,15.59
2024-02-16T10:18:32.147Z,15.97
2024-02-16T10:19:31.991Z,15.86
2024-02-16T10:20:31.967Z,15.97
2024-02-16T10:21:32.349Z,15.99
2024-02-16T10:22:47.168Z,16.24
2024-02-16T10:24:32.052Z,16.39
2024-02-16T10:25:33.484Z,15.99
2024-02-16T10:26:32.075Z,15.38
2024-02-16T10:27:32.077Z,15.50
2024-02-16T10:28:31.965Z,15.96
2024-02-16T10:29:31.975Z,15.80
2024-02-16T10:30:32.058Z,15.25
2024-02-16T10:31:32.206Z,15.82
2024-02-16T10:32:32.025Z,16.00
2024-02-16T10:33:32.153Z,15.77
2024-02-16T10:34:32.086Z,15.22
2024-02-16T10:35:31.999Z,14.99
2024-02-16T10:36:32.156Z,15.12
2024-02-16T10:37:32.038Z,14.68
2024-02-16T10:38:32.036Z,14.91
2024-02-16T10:39:32.117Z,15.03
2024-02-16T10:40:32.073Z,14.76
2024-02-16T10:41:32.084Z,15.05
2024-02-16T10:42:32.096Z,15.43
2024-02-16T10:43:32.174Z,15.15
2024-02-16T10:44:32.055Z,15.62
2024-02-16T10:45:32.153Z,15.38
2024-02-16T10:46:32.068Z,15.53
2024-02-16T10:47:32.099Z,16.09
2024-02-16T10:48:32.192Z,16.46
2024-02-16T10:49:32.298Z,16.13
2024-02-16T10:50:32.186Z,15.70
2024-02-16T10:51:32.113Z,16.06
2024-02-16T10:52:32.113Z,16.24
2024-02-16T10:53:32.130Z,16.70
2024-02-16T10:54:32.073Z,16.74
2024-02-16T10:55:32.086Z,16.68
2024-02-16T10:56:32.165Z,16.70
2024-02-16T10:57:32.154Z,16.39
2024-02-16T10:58:32.074Z,16.17
2024-02-16T10:59:32.093Z,16.03
2024-02-16T11:00:32.406Z,16.81
2024-02-16T11:01:32.251Z,17.43
2024-02-16T11:02:32.336Z,17.93
2024-02-16T11:03:33.296Z,18.28
2024-02-16T11:04:32.390Z,18.73
2024-02-16T11:05:32.360Z,19.06
2024-02-16T11:06:32.498Z,18.87
2024-02-16T11:07:32.506Z,18.15
2024-02-16T11:08:32.458Z,18.12
2024-02-16T11:09:32.540Z,18.45
2024-02-16T11:10:33.662Z,17.76
2024-02-16T11:11:32.805Z,17.56
2024-02-16T11:12:32.732Z,18.19
2024-02-16T11:13:32.713Z,18.67
2024-02-16T11:14:32.761Z,18.33
2024-02-16T11:15:32.804Z,18.45
2024-02-16T11:16:32.903Z,18.99
2024-02-16T11:17:32.746Z,18.96
2024-02-16T11:18:33.153Z,19.38
2024-02-16T11:19:32.953Z,19.82
2024-02-16T11:20:32.959Z,19.85
2024-02-16T11:21:33.000Z,20.01
2024-02-16T11:22:32.987Z,19.53
2024-02-16T11:23:32.975Z,19.85
2024-02-16T11:24:33.058Z,20.36
2024-02-16T11:25:33.020Z,20.64
2024-02-16T11:26:33.125Z,20.83
2024-02-16T11:27:33.270Z,21.09
2024-02-16T11:28:33.143Z,21.40
2024-02-16T11:29:33.154Z,21.60
2024-02-16T11:30:33.243Z,21.86
2024-02-16T11:31:33.217Z,22.01
2024-02-16T11:32:33.505Z,21.43
2024-02-16T11:33:33.522Z,21.35
2024-02-16T11:34:33.460Z,21.64
2024-02-16T11:35:33.363Z,20.98
2024-02-16T11:36:33.586Z,20.74
2024-02-16T11:37:33.526Z,21.03
2024-02-16T11:38:33.501Z,21.10
2024-02-16T11:39:33.605Z,21.42
2024-02-16T11:40:33.591Z,21.56
2024-02-16T11:41:34.022Z,21.77
2024-02-16T11:42:33.674Z,20.79
2024-02-16T11:43:33.646Z,21.36
2024-02-16T11:44:33.640Z,21.62
2024-02-16T11:45:33.735Z,21.28
2024-02-16T11:46:33.782Z,21.60
2024-02-16T11:47:33.823Z,21.35
2024-02-16T11:48:33.996Z,20.81
2024-02-16T11:49:33.926Z,21.06
2024-02-16T11:50:33.777Z,21.43
2024-02-16T11:51:34.083Z,21.23
2024-02-16T11:52:33.973Z,21.28
2024-02-16T11:53:34.025Z,21.60
2024-02-16T11:54:34.156Z,20.39
2024-02-16T11:55:34.144Z,21.26
2024-02-16T11:56:34.142Z,21.50
2024-02-16T11:57:34.402Z,21.83
2024-02-16T11:58:34.269Z,21.43
2024-02-16T11:59:34.322Z,21.43
2024-02-16T12:00:34.477Z,21.45
2024-02-16T12:01:34.553Z,20.67
2024-02-16T12:02:34.394Z,20.75
2024-02-16T12:03:34.546Z,21.33
2024-02-16T12:04:39.510Z,20.62
2024-02-16T12:05:35.536Z,21.09
2024-02-16T12:06:34.744Z,20.91
2024-02-16T12:07:34.715Z,20.55
2024-02-16T12:08:34.520Z,21.18
2024-02-16T12:09:34.713Z,21.15
2024-02-16T12:10:34.566Z,21.01
2024-02-16T12:11:34.668Z,20.98
2024-02-16T12:12:34.884Z,21.23
2024-02-16T12:13:34.541Z,21.56
2024-02-16T12:14:34.589Z,21.76
2024-02-16T12:15:34.617Z,22.00
2024-02-16T12:16:34.577Z,22.10
2024-02-16T12:17:34.585Z,21.12
2024-02-16T12:18:34.713Z,20.35
2024-02-16T12:19:34.601Z,20.68
2024-02-16T12:20:34.622Z,21.12
2024-02-16T12:21:34.655Z,21.22
2024-02-16T12:22:34.644Z,21.01
2024-02-16T12:23:34.715Z,20.62
2024-02-16T12:24:34.731Z,21.16
2024-02-16T12:25:34.750Z,21.45
2024-02-16T12:26:34.859Z,20.34
2024-02-16T12:27:35.010Z,20.64
2024-02-16T12:28:34.891Z,20.31
2024-02-16T12:29:34.967Z,20.58
2024-02-16T12:30:35.152Z,20.98
2024-02-16T12:31:35.018Z,21.21
2024-02-16T12:32:35.087Z,21.43
2024-02-16T12:33:35.238Z,21.38
2024-02-16T12:34:35.147Z,21.36
2024-02-16T12:35:35.056Z,21.13
2024-02-16T12:36:35.137Z,20.76
2024-02-16T12:37:35.054Z,20.22
2024-02-16T12:38:35.055Z,19.97
2024-02-16T12:39:35.148Z,19.92
2024-02-16T12:40:35.128Z,19.81
2024-02-16T12:41:35.077Z,19.67
2024-02-16T12:42:35.095Z,19.75
2024-02-16T12:43:35.116Z,19.54
2024-02-16T12:44:35.148Z,19.47
2024-02-16T12:45:35.274Z,19.37
2024-02-16T12:46:35.311Z,18.96
2024-02-16T12:47:35.365Z,19.10
2024-02-16T12:48:35.525Z,19.23
2024-02-16T12:49:35.370Z,18.89
2024-02-16T12:50:35.308Z,18.99
2024-02-16T12:51:35.708Z,19.10
2024-02-16T12:52:37.237Z,19.17
2024-02-16T12:53:36.380Z,19.33
2024-02-16T12:54:35.403Z,19.10
2024-02-16T12:55:35.352Z,19.10
2024-02-16T12:56:35.493Z,19.11
2024-02-16T12:57:35.483Z,19.31
2024-02-16T12:58:35.438Z,19.44
2024-02-16T12:59:35.422Z,19.00
2024-02-16T13:00:35.785Z,18.92
2024-02-16T13:01:35.436Z,19.18
2024-02-16T13:02:35.438Z,18.94
2024-02-16T13:03:35.420Z,19.14
2024-02-16T13:04:35.558Z,19.06
2024-02-16T13:05:35.444Z,19.03
2024-02-16T13:06:35.572Z,19.21
2024-02-16T13:07:35.501Z,19.31
2024-02-16T13:08:35.501Z,19.24
2024-02-16T13:09:35.638Z,19.27